Time;durP1;ratioP1;P1;durP2;ratioP2;P2;SDS_P1;SDS_P2;PMS_P1;PMS_P2;Temp;Humidity;BMP_temperature;BMP_pressure;BME280_temperature;BME280_humidity;BME280_pressure;Samples;Min_cycle;Max_cycle;Signal;HPM_P1;HPM_P2
2021/01/21 00:00:51;;;;;;;4.13;3.57;;;7.90;99.90;;;;;;5071003;28;20868;-50
2021/01/21 00:03:18;;;;;;;6.33;3.90;;;7.90;99.90;;;;;;5070926;28;20404;-50
2021/01/21 00:05:44;;;;;;;8.60;4.10;;;7.90;99.90;;;;;;5071038;28;20483;-50
2021/01/21 00:08:11;;;;;;;9.00;5.43;;;7.70;99.90;;;;;;5071012;28;20433;-49
2021/01/21 00:10:37;;;;;;;7.27;4.90;;;8.10;99.90;;;;;;5070673;28;20483;-50
2021/01/21 00:13:05;;;;;;;7.37;4.60;;;7.90;99.90;;;;;;5069299;28;20457;-49
2021/01/21 00:15:31;;;;;;;5.90;4.70;;;8.10;99.90;;;;;;5070741;28;20520;-51
2021/01/21 00:17:59;;;;;;;8.40;5.00;;;8.20;99.90;;;;;;5071005;28;20789;-50
2021/01/21 00:20:26;;;;;;;9.53;5.30;;;7.90;99.90;;;;;;5070772;28;20448;-51
2021/01/21 00:22:53;;;;;;;5.37;4.43;;;8.20;99.90;;;;;;5070573;28;20471;-50
2021/01/21 00:25:19;;;;;;;9.13;4.70;;;8.20;99.90;;;;;;5070801;28;20463;-50
2021/01/21 00:27:46;;;;;;;4.60;3.80;;;7.80;99.90;;;;;;5070905;28;20406;-50
2021/01/21 00:30:14;;;;;;;6.10;3.90;;;8.00;99.90;;;;;;5071044;28;20954;-50
2021/01/21 00:32:41;;;;;;;6.47;4.47;;;8.00;99.90;;;;;;5071011;28;20407;-50
2021/01/21 00:35:08;;;;;;;4.57;3.80;;;7.70;99.90;;;;;;5070895;28;20475;-50
2021/01/21 00:37:35;;;;;;;4.43;3.50;;;8.00;99.90;;;;;;5070558;28;20485;-50
2021/01/21 00:40:01;;;;;;;4.37;3.50;;;8.00;99.90;;;;;;5070833;28;20520;-50
2021/01/21 00:42:28;;;;;;;4.13;3.73;;;7.90;99.90;;;;;;5070497;28;20454;-50
2021/01/21 00:44:54;;;;;;;6.90;3.60;;;7.60;99.90;;;;;;5070744;28;20774;-50
2021/01/21 00:47:22;;;;;;;4.33;3.60;;;7.60;99.90;;;;;;5070727;28;20929;-50
2021/01/21 00:49:48;;;;;;;4.13;3.20;;;8.00;99.90;;;;;;5071912;28;20485;-50
2021/01/21 00:52:15;;;;;;;3.50;2.83;;;7.70;99.80;;;;;;5074549;28;20820;-49
2021/01/21 00:54:41;;;;;;;3.40;3.10;;;8.00;99.90;;;;;;5074199;28;20409;-50
2021/01/21 00:57:09;;;;;;;5.03;4.00;;;7.80;99.90;;;;;;5072811;28;20830;-49
2021/01/21 00:59:36;;;;;;;4.00;3.37;;;7.80;99.90;;;;;;5072912;28;20470;-49
2021/01/21 01:02:02;;;;;;;4.63;3.63;;;7.80;99.90;;;;;;5074219;28;20513;-50
2021/01/21 01:04:30;;;;;;;5.47;3.77;;;7.70;99.80;;;;;;5072244;28;20474;-50
2021/01/21 01:07:00;;;;;;;5.30;2.53;;;7.40;99.60;;;;;;5072610;28;20442;-49
2021/01/21 01:09:27;;;;;;;4.77;3.73;;;7.80;99.80;;;;;;5072494;28;20948;-50
2021/01/21 01:11:55;;;;;;;3.77;3.43;;;7.80;99.60;;;;;;5073982;28;20418;-49
2021/01/21 01:14:21;;;;;;;5.10;3.30;;;7.80;99.70;;;;;;5072361;28;20865;-50
2021/01/21 01:16:48;;;;;;;5.10;2.60;;;7.60;99.50;;;;;;5072729;28;20536;-50
2021/01/21 01:19:15;;;;;;;4.20;3.13;;;7.40;99.30;;;;;;5073723;28;20624;-50
2021/01/21 01:21:45;;;;;;;4.83;3.23;;;7.90;99.50;;;;;;5074137;28;20463;-50
2021/01/21 01:24:13;;;;;;;3.83;2.83;;;7.60;99.30;;;;;;5073436;28;20457;-50
2021/01/21 01:26:43;;;;;;;3.13;2.83;;;7.70;99.30;;;;;;5072475;28;20452;-49
2021/01/21 01:29:13;;;;;;;5.83;2.97;;;7.60;99.10;;;;;;5073831;28;20432;-49
2021/01/21 01:31:43;;;;;;;4.07;2.63;;;7.60;99.10;;;;;;5072198;28;20447;-50
2021/01/21 01:34:10;;;;;;;4.67;3.20;;;8.00;99.20;;;;;;5071978;28;20828;-50
2021/01/21 01:36:57;;;;;;;3.27;2.40;;;7.60;98.90;;;;;;5073415;28;20977;-50
2021/01/21 01:39:25;;;;;;;2.87;2.30;;;7.70;99.00;;;;;;5071974;28;20456;-49
2021/01/21 01:41:57;;;;;;;3.93;3.10;;;8.10;98.90;;;;;;5072362;28;20959;-49
2021/01/21 01:44:23;;;;;;;4.03;2.80;;;7.70;98.50;;;;;;5072953;28;20766;-49
2021/01/21 01:46:50;;;;;;;3.70;2.57;;;7.70;98.30;;;;;;5072152;28;20543;-50
2021/01/21 01:49:21;;;;;;;3.80;2.63;;;8.20;98.50;;;;;;5072486;28;20451;-50
2021/01/21 01:51:49;;;;;;;3.47;2.70;;;7.70;98.10;;;;;;5071965;28;20467;-50
2021/01/21 01:54:18;;;;;;;3.90;2.57;;;8.20;98.20;;;;;;5071660;28;20440;-50
2021/01/21 01:56:52;;;;;;;3.00;2.40;;;8.10;98.20;;;;;;5071732;28;20430;-50
2021/01/21 01:59:30;;;;;;;4.40;2.60;;;7.70;97.60;;;;;;5071806;28;20422;-50
2021/01/21 02:02:00;;;;;;;2.90;2.40;;;8.00;97.80;;;;;;5071155;28;20445;-50
2021/01/21 02:04:30;;;;;;;4.57;2.97;;;7.60;97.60;;;;;;5072825;28;20432;-50
2021/01/21 02:07:18;;;;;;;3.73;2.80;;;7.90;97.70;;;;;;5072993;28;20540;-51
2021/01/21 02:09:56;;;;;;;4.00;2.60;;;8.00;98.00;;;;;;5071459;28;20476;-50
2021/01/21 02:12:40;;;;;;;3.20;2.40;;;8.10;97.80;;;;;;5071528;28;20442;-50
2021/01/21 02:15:21;;;;;;;5.17;2.50;;;7.90;97.80;;;;;;5073184;28;20402;-50
2021/01/21 02:18:04;;;;;;;5.00;2.33;;;7.60;97.60;;;;;;5071436;28;20567;-51
2021/01/21 02:21:15;;;;;;;4.50;2.30;;;8.10;97.90;;;;;;5072636;28;20483;-49
2021/01/21 02:24:34;;;;;;;2.77;2.20;;;7.70;97.50;;;;;;5072342;28;20556;-50
2021/01/21 02:27:05;;;;;;;3.40;3.07;;;7.90;97.60;;;;;;5071402;28;20452;-49
2021/01/21 02:29:37;;;;;;;2.77;2.30;;;8.00;97.70;;;;;;5071266;28;20422;-49
2021/01/21 02:32:36;;;;;;;3.60;2.30;;;7.60;97.40;;;;;;5072467;28;20414;-50
2021/01/21 02:35:17;;;;;;;3.70;2.67;;;7.80;97.70;;;;;;5071234;28;20909;-50
2021/01/21 02:37:54;;;;;;;4.07;2.67;;;8.00;97.70;;;;;;5070957;28;20442;-50
2021/01/21 02:40:23;;;;;;;3.87;2.30;;;7.70;97.60;;;;;;5072310;28;20505;-50
2021/01/21 02:43:03;;;;;;;3.33;2.20;;;7.80;97.60;;;;;;5072072;28;20801;-49
2021/01/21 02:45:29;;;;;;;6.37;2.73;;;7.70;97.70;;;;;;5072429;28;20418;-50
2021/01/21 02:48:01;;;;;;;3.93;2.40;;;8.10;97.80;;;;;;5070665;28;20485;-50
2021/01/21 02:50:43;;;;;;;2.47;1.87;;;8.10;97.80;;;;;;5070733;28;20500;-50
2021/01/21 02:53:10;;;;;;;3.50;2.13;;;7.80;97.60;;;;;;5071523;28;20410;-50
2021/01/21 02:55:46;;;;;;;3.40;2.43;;;7.90;97.60;;;;;;5070766;28;20926;-49
2021/01/21 02:58:19;;;;;;;3.83;2.60;;;8.10;97.70;;;;;;5070891;28;20893;-49
2021/01/21 03:00:47;;;;;;;3.30;2.27;;;7.90;97.60;;;;;;5072079;28;20443;-49
2021/01/21 03:03:18;;;;;;;4.67;2.40;;;8.00;97.60;;;;;;5070344;28;20468;-49
2021/01/21 03:05:50;;;;;;;3.40;2.07;;;8.00;97.50;;;;;;5071111;28;20471;-49
2021/01/21 03:08:17;;;;;;;3.20;2.07;;;7.90;97.50;;;;;;5070743;28;20565;-49
2021/01/21 03:10:44;;;;;;;3.30;1.83;;;8.00;97.40;;;;;;5070263;28;20791;-49
2021/01/21 03:13:12;;;;;;;3.63;2.33;;;8.10;97.40;;;;;;5069278;28;20441;-49
2021/01/21 03:15:47;;;;;;;3.10;1.93;;;8.10;97.60;;;;;;5071750;28;20440;-50
2021/01/21 03:18:16;;;;;;;3.97;2.07;;;8.10;97.10;;;;;;5070265;28;21073;-49
2021/01/21 03:20:43;;;;;;;5.50;2.10;;;8.10;97.20;;;;;;5071406;28;20451;-50
2021/01/21 03:23:15;;;;;;;2.20;1.80;;;8.20;97.10;;;;;;5069920;28;20438;-49
2021/01/21 03:25:53;;;;;;;2.73;1.70;;;8.30;97.10;;;;;;5070421;28;20459;-49
2021/01/21 03:28:20;;;;;;;3.23;2.10;;;8.40;97.00;;;;;;5070219;28;20410;-49
2021/01/21 03:30:46;;;;;;;2.57;1.90;;;8.10;96.90;;;;;;5070148;28;20491;-49
2021/01/21 03:33:13;;;;;;;9.57;1.67;;;7.90;96.70;;;;;;5069921;28;20447;-48
2021/01/21 03:35:46;;;;;;;3.23;2.37;;;8.30;97.00;;;;;;5070286;28;20599;-49
2021/01/21 03:38:17;;;;;;;3.73;2.03;;;8.10;96.80;;;;;;5070058;28;20527;-50
2021/01/21 03:41:03;;;;;;;3.17;2.20;;;8.40;96.60;;;;;;5072841;28;20472;-49
2021/01/21 03:43:34;;;;;;;2.77;2.20;;;8.20;96.50;;;;;;5069923;28;20512;-50
2021/01/21 03:46:19;;;;;;;2.80;1.70;;;8.20;96.30;;;;;;5071644;28;21029;-50
2021/01/21 03:48:46;;;;;;;2.90;1.63;;;8.40;96.40;;;;;;5069954;28;20826;-49
2021/01/21 03:51:31;;;;;;;2.90;2.20;;;8.40;96.40;;;;;;5068482;28;20459;-49
2021/01/21 03:54:17;;;;;;;3.63;1.80;;;8.50;96.30;;;;;;5070588;28;20457;-49
2021/01/21 03:56:45;;;;;;;3.33;2.13;;;8.20;96.30;;;;;;5069746;28;20514;-49
2021/01/21 03:59:11;;;;;;;2.43;2.07;;;8.20;96.30;;;;;;5069971;28;20528;-49
2021/01/21 04:01:45;;;;;;;3.17;2.10;;;8.30;96.50;;;;;;5070008;28;20488;-49
2021/01/21 04:04:11;;;;;;;4.33;2.40;;;8.30;96.20;;;;;;5070949;28;20751;-50
2021/01/21 04:06:38;;;;;;;8.30;2.50;;;8.30;96.50;;;;;;5071260;28;20438;-49
2021/01/21 04:09:10;;;;;;;2.90;2.30;;;8.10;96.50;;;;;;5071330;28;20403;-51
2021/01/21 04:12:08;;;;;;;2.70;2.00;;;8.20;96.60;;;;;;5110220;22;20491;-46
2021/01/21 04:14:35;;;;;;;3.30;2.07;;;8.00;96.50;;;;;;5089887;28;20540;-47
2021/01/21 04:17:01;;;;;;;1.90;1.60;;;8.00;96.50;;;;;;5090299;28;20508;-47
2021/01/21 04:19:30;;;;;;;2.40;1.90;;;8.20;96.60;;;;;;5107085;28;20826;-46
2021/01/21 04:21:57;;;;;;;4.10;2.00;;;8.20;96.60;;;;;;5090258;28;20964;-46
2021/01/21 04:24:26;;;;;;;4.30;2.00;;;8.20;96.60;;;;;;5092814;28;20455;-47
2021/01/21 04:27:00;;;;;;;2.30;1.93;;;8.30;96.70;;;;;;5094487;28;20444;-46
2021/01/21 04:29:39;;;;;;;3.43;1.77;;;8.20;96.80;;;;;;5094474;28;20449;-46
2021/01/21 04:32:06;;;;;;;2.63;2.20;;;8.20;97.00;;;;;;5095532;28;20723;-47
2021/01/21 04:34:33;;;;;;;4.00;2.07;;;8.00;96.60;;;;;;5093813;28;20443;-47
2021/01/21 04:37:00;;;;;;;4.97;2.10;;;8.20;96.60;;;;;;5096278;28;20528;-47
2021/01/21 04:39:45;;;;;;;6.30;2.20;;;8.20;96.50;;;;;;5096124;28;20795;-47
2021/01/21 04:42:15;;;;;;;3.23;1.80;;;8.20;96.50;;;;;;5094774;28;20891;-47
2021/01/21 04:44:45;;;;;;;3.20;2.20;;;8.40;96.30;;;;;;5094165;28;20454;-47
2021/01/21 04:47:22;;;;;;;5.23;2.20;;;8.40;96.50;;;;;;5096236;28;20440;-46
2021/01/21 04:50:11;;;;;;;3.27;2.00;;;8.00;96.30;;;;;;5094837;28;20782;-46
2021/01/21 04:52:51;;;;;;;2.93;1.83;;;8.10;96.30;;;;;;5094431;28;20428;-46
2021/01/21 04:55:25;;;;;;;3.43;2.40;;;8.00;96.30;;;;;;5094704;28;20946;-46
2021/01/21 04:58:19;;;;;;;2.90;1.90;;;8.20;96.40;;;;;;5095515;28;20475;-46
2021/01/21 05:00:49;;;;;;;4.00;2.67;;;8.10;96.40;;;;;;5094597;28;20509;-46
2021/01/21 05:03:17;;;;;;;4.60;2.30;;;7.90;96.40;;;;;;5095264;28;20428;-46
2021/01/21 05:06:07;;;;;;;2.73;2.10;;;8.20;96.50;;;;;;5095419;28;20512;-46
2021/01/21 05:08:35;;;;;;;7.00;3.20;;;7.80;96.40;;;;;;5094355;28;20454;-46
2021/01/21 05:11:17;;;;;;;4.20;3.03;;;8.20;96.60;;;;;;5094439;28;20459;-46
2021/01/21 05:14:01;;;;;;;3.17;2.57;;;8.00;96.50;;;;;;5094400;28;20423;-46
2021/01/21 05:16:48;;;;;;;4.67;2.90;;;7.90;96.40;;;;;;5095395;28;20757;-46
2021/01/21 05:19:35;;;;;;;5.13;2.87;;;8.40;96.70;;;;;;5094859;28;20421;-46
2021/01/21 05:22:22;;;;;;;7.57;2.17;;;8.10;96.60;;;;;;5094769;28;20478;-46
2021/01/21 05:25:13;;;;;;;6.17;2.80;;;8.00;96.50;;;;;;5093450;28;20431;-46
2021/01/21 05:27:52;;;;;;;4.47;2.57;;;8.30;96.70;;;;;;5093516;28;20936;-46
2021/01/21 05:30:42;;;;;;;4.33;3.30;;;8.00;96.60;;;;;;5086166;28;20456;-46
2021/01/21 05:33:13;;;;;;;4.07;2.73;;;8.20;96.60;;;;;;5093363;28;20451;-46
2021/01/21 05:36:09;;;;;;;4.90;2.70;;;8.20;96.90;;;;;;5081141;28;20428;-46
2021/01/21 05:38:54;;;;;;;4.00;2.93;;;8.10;96.60;;;;;;5094323;28;20556;-46
2021/01/21 05:41:39;;;;;;;5.27;3.20;;;8.20;96.70;;;;;;5095519;28;20447;-46
2021/01/21 05:44:22;;;;;;;5.73;2.70;;;8.20;96.90;;;;;;5093323;28;20531;-46
2021/01/21 05:47:10;;;;;;;6.67;2.80;;;8.20;96.60;;;;;;5093415;28;20426;-46
2021/01/21 05:49:39;;;;;;;4.80;3.10;;;8.00;96.60;;;;;;5093441;28;20451;-46
2021/01/21 05:52:12;;;;;;;7.10;3.83;;;8.20;96.70;;;;;;5093805;28;20466;-46
2021/01/21 05:54:41;;;;;;;5.73;3.30;;;8.30;96.80;;;;;;5093199;28;20471;-46
2021/01/21 05:57:17;;;;;;;5.50;3.77;;;7.90;96.60;;;;;;5093912;28;20454;-46
2021/01/21 05:59:46;;;;;;;6.13;4.23;;;8.20;96.60;;;;;;5092277;28;20441;-46
2021/01/21 06:02:29;;;;;;;5.37;3.70;;;8.40;96.70;;;;;;5092338;28;20981;-46
2021/01/21 06:05:07;;;;;;;5.67;3.30;;;7.90;96.40;;;;;;5092606;28;20446;-46
2021/01/21 06:07:34;;;;;;;3.93;3.30;;;8.30;96.50;;;;;;5093709;28;20961;-46
2021/01/21 06:10:02;;;;;;;4.80;3.30;;;8.00;96.40;;;;;;5092819;28;20451;-46
2021/01/21 06:12:28;;;;;;;5.57;4.00;;;8.00;96.30;;;;;;5093155;28;20482;-45
2021/01/21 06:14:59;;;;;;;6.10;3.60;;;8.10;96.40;;;;;;5093599;28;20401;-46
2021/01/21 06:17:26;;;;;;;9.87;4.17;;;8.00;96.30;;;;;;5093156;28;20501;-46
2021/01/21 06:20:15;;;;;;;7.50;4.60;;;8.10;96.40;;;;;;5085748;28;20422;-46
2021/01/21 06:22:45;;;;;;;8.53;4.00;;;8.40;96.80;;;;;;5092031;28;20450;-46
2021/01/21 06:25:14;;;;;;;5.10;4.03;;;8.40;96.30;;;;;;5091971;28;20490;-46
2021/01/21 06:27:43;;;;;;;6.10;4.00;;;8.50;96.30;;;;;;5093378;28;20943;-45
2021/01/21 06:30:15;;;;;;;7.93;4.23;;;8.50;96.10;;;;;;5092864;28;20923;-46
2021/01/21 06:33:00;;;;;;;5.10;3.70;;;8.50;96.20;;;;;;5092425;28;20451;-45
2021/01/21 06:35:31;;;;;;;5.50;4.20;;;8.30;96.10;;;;;;5091678;28;20458;-46
2021/01/21 06:38:03;;;;;;;6.40;4.00;;;8.20;95.80;;;;;;5091257;28;20526;-46
2021/01/21 06:40:32;;;;;;;6.70;4.13;;;8.50;96.10;;;;;;5092495;28;20440;-46
2021/01/21 06:43:03;;;;;;;7.70;4.20;;;8.30;96.00;;;;;;5092764;28;20893;-45
2021/01/21 06:45:32;;;;;;;6.93;4.53;;;8.50;96.10;;;;;;5092873;28;20808;-46
2021/01/21 06:47:59;;;;;;;6.33;3.90;;;8.50;96.10;;;;;;5092631;28;20889;-45
2021/01/21 06:50:29;;;;;;;5.47;3.80;;;8.50;96.00;;;;;;5091553;28;20533;-46
2021/01/21 06:52:58;;;;;;;5.30;3.87;;;8.40;95.70;;;;;;5092942;28;20951;-46
2021/01/21 06:55:26;;;;;;;5.13;3.90;;;8.50;95.70;;;;;;5092932;28;20541;-46
2021/01/21 06:57:52;;;;;;;6.40;4.03;;;8.60;95.70;;;;;;5091467;28;20450;-46
2021/01/21 07:00:39;;;;;;;7.00;3.97;;;8.60;95.50;;;;;;5092655;28;20404;-47
2021/01/21 07:03:06;;;;;;;6.37;4.07;;;8.80;95.40;;;;;;5092044;28;20403;-47
2021/01/21 07:05:33;;;;;;;7.00;3.60;;;8.30;95.20;;;;;;5092342;28;20428;-47
2021/01/21 07:08:05;;;;;;;3.70;2.80;;;8.60;95.30;;;;;;5092930;28;20437;-46
2021/01/21 07:10:35;;;;;;;8.10;4.50;;;8.60;95.10;;;;;;5093143;28;20439;-45
2021/01/21 07:13:04;;;;;;;7.40;4.30;;;8.70;95.20;;;;;;5091695;28;20449;-43
2021/01/21 07:15:34;;;;;;;7.90;3.60;;;8.90;95.30;;;;;;5092990;28;20861;-44
2021/01/21 07:18:02;;;;;;;6.60;3.30;;;8.70;95.00;;;;;;5094079;28;20484;-46
2021/01/21 07:20:35;;;;;;;4.87;3.13;;;8.60;94.90;;;;;;5092858;28;20444;-45
2021/01/21 07:23:06;;;;;;;8.60;3.70;;;8.60;94.80;;;;;;5093956;28;20495;-46
2021/01/21 07:25:34;;;;;;;4.80;3.53;;;8.80;94.90;;;;;;5094949;28;20504;-45
2021/01/21 07:28:09;;;;;;;4.77;3.03;;;8.80;94.80;;;;;;5095140;28;20404;-47
2021/01/21 07:30:38;;;;;;;7.07;3.00;;;8.60;94.30;;;;;;5093302;28;20460;-46
2021/01/21 07:33:22;;;;;;;5.07;3.07;;;8.80;94.30;;;;;;5092972;28;20465;-47
2021/01/21 07:35:50;;;;;;;4.70;2.87;;;8.70;94.30;;;;;;5093371;28;20415;-46
2021/01/21 07:38:47;;;;;;;5.30;3.37;;;8.90;94.30;;;;;;5092610;28;20468;-46
2021/01/21 07:41:59;;;;;;;4.17;3.27;;;8.80;94.30;;;;;;5090064;28;20965;-47
2021/01/21 07:44:54;;;;;;;4.93;3.30;;;9.10;94.50;;;;;;5009464;28;20415;-47
2021/01/21 07:47:29;;;;;;;6.07;2.83;;;8.80;94.00;;;;;;5089930;28;20800;-47
2021/01/21 07:50:35;;;;;;;5.30;2.97;;;9.00;94.20;;;;;;5092718;28;20516;-45
2021/01/21 07:53:04;;;;;;;4.50;3.27;;;8.80;93.90;;;;;;5090829;28;20866;-44
2021/01/21 07:55:33;;;;;;;4.70;3.07;;;8.90;94.00;;;;;;5092711;28;20440;-45
2021/01/21 07:58:16;;;;;;;5.70;3.30;;;9.00;94.00;;;;;;5091867;28;20930;-45
2021/01/21 08:00:43;;;;;;;4.27;2.57;;;8.80;93.80;;;;;;5093032;28;20415;-45
2021/01/21 08:03:10;;;;;;;5.17;3.30;;;9.10;93.80;;;;;;5093008;28;20988;-45
2021/01/21 08:05:37;;;;;;;3.10;2.43;;;9.10;93.70;;;;;;5093892;28;20461;-46
2021/01/21 08:08:06;;;;;;;6.33;2.80;;;8.90;93.70;;;;;;5092799;28;20425;-44
2021/01/21 08:10:33;;;;;;;3.80;2.27;;;9.30;93.90;;;;;;5090669;28;20644;-44
2021/01/21 08:13:01;;;;;;;4.10;3.07;;;9.20;93.80;;;;;;5092237;28;20411;-45
2021/01/21 08:15:30;;;;;;;7.23;3.17;;;9.30;93.90;;;;;;5092456;28;20482;-45
2021/01/21 08:17:59;;;;;;;5.07;2.97;;;9.40;93.70;;;;;;5091791;28;20471;-45
2021/01/21 08:20:26;;;;;;;5.00;3.50;;;9.30;93.80;;;;;;5090834;28;20500;-46
2021/01/21 08:22:58;;;;;;;5.33;3.60;;;9.40;93.90;;;;;;5090487;28;20423;-46
2021/01/21 08:25:28;;;;;;;7.53;2.67;;;9.30;93.80;;;;;;5091709;28;20811;-46
2021/01/21 08:27:55;;;;;;;3.40;2.23;;;9.30;93.60;;;;;;5091982;28;20411;-47
2021/01/21 08:30:24;;;;;;;3.70;3.10;;;9.40;93.60;;;;;;5091398;28;20935;-46
2021/01/21 08:32:59;;;;;;;5.10;2.50;;;9.40;93.50;;;;;;5091207;28;20523;-46
2021/01/21 08:35:27;;;;;;;7.10;3.83;;;9.40;93.50;;;;;;5092328;28;20399;-46
2021/01/21 08:37:55;;;;;;;7.20;3.97;;;9.50;93.30;;;;;;5092088;28;20462;-46
2021/01/21 08:40:23;;;;;;;5.90;3.60;;;9.50;93.30;;;;;;5092227;28;20453;-44
2021/01/21 08:42:52;;;;;;;13.23;3.27;;;9.70;93.10;;;;;;5091923;28;20411;-45
2021/01/21 08:45:20;;;;;;;7.93;5.00;;;10.00;92.40;;;;;;5091590;28;20923;-45
2021/01/21 08:47:48;;;;;;;4.57;2.63;;;9.70;92.50;;;;;;5092169;28;20408;-45
2021/01/21 08:50:17;;;;;;;10.50;4.30;;;10.00;92.10;;;;;;5091399;28;20478;-45
2021/01/21 08:53:12;;;;;;;4.80;3.37;;;10.10;92.40;;;;;;5091275;28;20436;-45
2021/01/21 08:55:40;;;;;;;4.53;3.07;;;9.90;92.90;;;;;;5044422;28;20960;-45
2021/01/21 08:58:09;;;;;;;6.87;3.33;;;9.70;92.80;;;;;;5093723;28;21033;-45
2021/01/21 09:00:37;;;;;;;5.90;3.00;;;9.70;92.60;;;;;;5093705;28;20483;-46
2021/01/21 09:03:04;;;;;;;3.53;2.40;;;10.00;91.90;;;;;;5093413;28;20447;-46
2021/01/21 09:08:48;;;;;;;4.03;2.63;;;10.20;91.90;;;;;;5091791;28;20436;-46
2021/01/21 09:11:27;;;;;;;7.83;3.43;;;10.50;92.10;;;;;;5093545;28;20439;-45
2021/01/21 09:13:55;;;;;;;11.50;3.20;;;10.20;91.90;;;;;;5093268;28;20455;-45
2021/01/21 09:16:39;;;;;;;7.47;3.63;;;10.10;91.70;;;;;;5094637;28;20435;-46
2021/01/21 09:19:06;;;;;;;3.67;2.47;;;10.30;91.60;;;;;;5094800;28;20550;-46
2021/01/21 09:21:32;;;;;;;3.97;2.67;;;10.40;91.50;;;;;;5094868;28;21033;-46
2021/01/21 09:24:10;;;;;;;4.07;3.00;;;10.40;91.30;;;;;;5095012;28;20558;-46
2021/01/21 09:26:36;;;;;;;5.00;2.50;;;10.40;91.20;;;;;;5094429;28;20481;-46
2021/01/21 09:29:04;;;;;;;5.33;2.60;;;10.70;91.20;;;;;;5093292;28;20457;-46
2021/01/21 09:31:32;;;;;;;5.07;2.83;;;10.50;90.80;;;;;;5094545;28;20444;-46
2021/01/21 09:33:59;;;;;;;5.80;2.70;;;10.40;90.70;;;;;;5094514;28;20545;-46
2021/01/21 09:36:27;;;;;;;6.60;2.70;;;10.50;90.80;;;;;;5094557;28;20757;-46
2021/01/21 09:38:54;;;;;;;4.23;2.70;;;10.50;90.40;;;;;;5094377;28;20468;-46
2021/01/21 09:41:21;;;;;;;3.80;2.50;;;10.50;90.20;;;;;;5094319;28;20531;-46
2021/01/21 09:43:48;;;;;;;4.40;2.50;;;11.00;90.40;;;;;;5092544;28;20565;-46
2021/01/21 09:46:15;;;;;;;5.10;2.80;;;10.60;90.30;;;;;;5094489;28;20478;-47
2021/01/21 09:48:43;;;;;;;6.13;3.97;;;10.70;90.20;;;;;;5094567;28;20508;-47
2021/01/21 09:51:10;;;;;;;7.87;2.73;;;10.70;90.20;;;;;;5093656;28;20463;-47
2021/01/21 09:53:36;;;;;;;6.87;2.53;;;10.80;90.30;;;;;;5093288;28;20516;-47
2021/01/21 09:56:03;;;;;;;3.40;2.83;;;10.70;90.00;;;;;;5093676;28;20425;-47
2021/01/21 09:58:30;;;;;;;4.27;2.40;;;10.90;90.30;;;;;;5093457;28;20480;-47
2021/01/21 10:00:56;;;;;;;4.77;2.57;;;10.80;90.20;;;;;;5093684;28;20642;-47
2021/01/21 10:03:24;;;;;;;6.93;2.90;;;10.90;90.30;;;;;;5093759;28;20807;-47
2021/01/21 10:05:50;;;;;;;3.90;2.60;;;11.00;90.00;;;;;;5094033;28;20428;-46
2021/01/21 10:08:17;;;;;;;4.13;3.00;;;10.80;89.60;;;;;;5093686;28;20452;-47
2021/01/21 10:10:44;;;;;;;7.63;2.40;;;10.90;90.00;;;;;;5108696;22;20459;-47
2021/01/21 10:13:10;;;;;;;3.53;2.40;;;11.30;90.00;;;;;;5093866;28;20606;-46
2021/01/21 10:15:36;;;;;;;5.47;2.37;;;11.20;89.70;;;;;;5076119;28;20607;-48
2021/01/21 10:18:03;;;;;;;7.97;3.07;;;11.40;90.20;;;;;;5093925;28;20477;-47
2021/01/21 10:20:31;;;;;;;4.60;2.30;;;11.40;89.40;;;;;;5094315;28;20425;-47
2021/01/21 10:22:57;;;;;;;13.73;3.17;;;11.20;89.50;;;;;;5093661;28;20436;-48
2021/01/21 10:25:24;;;;;;;5.13;2.30;;;11.20;89.60;;;;;;5094396;28;20429;-48
2021/01/21 10:27:51;;;;;;;5.67;2.57;;;11.10;90.00;;;;;;5093804;28;20429;-47
2021/01/21 10:30:18;;;;;;;6.10;2.80;;;11.10;89.80;;;;;;5093613;28;20425;-48
2021/01/21 10:32:45;;;;;;;5.60;3.10;;;11.20;90.10;;;;;;5093284;28;20435;-48
2021/01/21 10:35:14;;;;;;;6.37;3.03;;;10.70;90.00;;;;;;5093637;28;20769;-48
2021/01/21 10:37:41;;;;;;;10.33;2.80;;;11.20;90.30;;;;;;5075026;28;20423;-48
2021/01/21 10:40:09;;;;;;;3.40;2.57;;;11.60;90.20;;;;;;5092947;28;20439;-50
2021/01/21 10:42:35;;;;;;;5.87;2.50;;;11.30;90.20;;;;;;5092350;28;20548;-49
2021/01/21 10:45:02;;;;;;;5.30;3.80;;;11.30;90.30;;;;;;5092920;28;20415;-48
2021/01/21 10:47:29;;;;;;;7.87;3.10;;;11.60;90.60;;;;;;5093004;28;20433;-47
2021/01/21 10:49:55;;;;;;;5.07;2.70;;;11.30;90.00;;;;;;5074634;28;20460;-47
2021/01/21 10:52:22;;;;;;;3.03;2.10;;;11.60;90.10;;;;;;5092575;28;20481;-46
2021/01/21 10:54:49;;;;;;;5.93;3.20;;;11.60;90.10;;;;;;5093445;28;20416;-47
2021/01/21 10:57:17;;;;;;;7.13;3.63;;;11.50;89.90;;;;;;5092818;28;20425;-47
2021/01/21 10:59:43;;;;;;;5.93;2.80;;;11.30;89.90;;;;;;5092427;28;21004;-48
2021/01/21 11:02:10;;;;;;;6.10;3.07;;;11.60;90.10;;;;;;5092092;28;20874;-47
2021/01/21 11:04:37;;;;;;;6.83;3.00;;;11.80;90.10;;;;;;5092232;28;20975;-48
2021/01/21 11:07:03;;;;;;;15.33;3.03;;;11.70;89.90;;;;;;5092443;28;20431;-48
2021/01/21 11:09:35;;;;;;;7.00;3.60;;;11.80;89.20;;;;;;5092387;28;20439;-48
2021/01/21 11:12:04;;;;;;;4.93;3.07;;;11.70;89.00;;;;;;5092043;28;20821;-47
2021/01/21 11:14:31;;;;;;;4.90;2.80;;;11.90;89.50;;;;;;5091896;28;20494;-47
2021/01/21 11:16:58;;;;;;;6.00;2.97;;;11.90;89.10;;;;;;5091979;28;20443;-48
2021/01/21 11:19:24;;;;;;;14.57;4.10;;;11.90;88.50;;;;;;5091323;28;20465;-48
2021/01/21 11:21:52;;;;;;;5.90;3.10;;;12.00;88.80;;;;;;5074077;28;21018;-48
2021/01/21 11:24:19;;;;;;;3.77;2.90;;;12.20;88.80;;;;;;5091961;28;20479;-48
2021/01/21 11:26:46;;;;;;;6.27;3.30;;;12.30;88.50;;;;;;5091818;28;20516;-47
2021/01/21 11:29:13;;;;;;;10.00;4.30;;;12.30;88.00;;;;;;5091931;28;20427;-47
2021/01/21 11:31:40;;;;;;;6.17;3.07;;;12.40;87.30;;;;;;5091541;28;20444;-47
2021/01/21 11:34:06;;;;;;;9.13;2.60;;;12.60;87.30;;;;;;5090766;28;20910;-49
2021/01/21 11:36:33;;;;;;;6.23;2.90;;;12.40;86.70;;;;;;5091599;28;20429;-48
2021/01/21 11:38:59;;;;;;;5.23;2.80;;;12.70;86.60;;;;;;5091659;28;20484;-48
2021/01/21 11:41:26;;;;;;;4.50;2.70;;;12.50;87.20;;;;;;5092067;28;20508;-47
2021/01/21 11:43:53;;;;;;;7.43;3.00;;;12.70;87.10;;;;;;5091252;28;20905;-49
2021/01/21 11:46:20;;;;;;;7.53;4.53;;;12.80;87.10;;;;;;5091739;28;20422;-47
2021/01/21 11:48:47;;;;;;;9.40;3.27;;;12.70;86.70;;;;;;5091319;28;20490;-48
2021/01/21 11:51:13;;;;;;;6.83;3.10;;;12.70;86.20;;;;;;5091301;28;20478;-48
2021/01/21 11:53:40;;;;;;;6.70;3.23;;;12.80;87.10;;;;;;5091076;28;20434;-48
2021/01/21 11:56:06;;;;;;;7.07;4.00;;;12.70;86.80;;;;;;5091598;28;20430;-48
2021/01/21 11:58:33;;;;;;;6.80;3.23;;;12.70;86.80;;;;;;5091623;28;20475;-47
2021/01/21 12:00:59;;;;;;;4.60;3.03;;;12.70;86.70;;;;;;5091744;28;20451;-47
2021/01/21 12:03:27;;;;;;;6.57;3.83;;;12.60;87.00;;;;;;5091443;28;20532;-47
2021/01/21 12:05:54;;;;;;;9.00;2.53;;;12.60;86.60;;;;;;5091863;28;20480;-47
2021/01/21 12:08:20;;;;;;;12.20;3.27;;;13.20;87.50;;;;;;5091113;28;20438;-47
2021/01/21 12:10:48;;;;;;;25.07;3.17;;;12.60;86.40;;;;;;5091277;28;20940;-47
2021/01/21 12:13:15;;;;;;;7.10;2.77;;;12.70;87.00;;;;;;5090840;28;20404;-48
2021/01/21 12:15:41;;;;;;;7.13;2.10;;;12.80;86.30;;;;;;5091363;28;20415;-48
2021/01/21 12:18:08;;;;;;;13.03;2.97;;;12.70;86.00;;;;;;5091028;28;20540;-48
2021/01/21 12:20:35;;;;;;;5.00;1.70;;;12.70;87.00;;;;;;5091412;28;20431;-48
2021/01/21 12:23:02;;;;;;;4.60;2.43;;;12.90;85.60;;;;;;5090761;28;20439;-48
2021/01/21 12:25:29;;;;;;;4.87;1.90;;;13.00;86.20;;;;;;5090965;28;20458;-48
2021/01/21 12:27:56;;;;;;;2.20;1.70;;;13.00;86.30;;;;;;5090508;28;20442;-48
2021/01/21 12:30:24;;;;;;;5.60;2.60;;;12.80;86.20;;;;;;5091001;28;20432;-48
2021/01/21 12:32:50;;;;;;;6.33;2.30;;;12.90;86.00;;;;;;5090802;28;20449;-47
2021/01/21 12:35:17;;;;;;;7.13;3.77;;;13.00;85.90;;;;;;5090880;28;20439;-48
2021/01/21 12:37:44;;;;;;;10.13;2.50;;;13.00;86.40;;;;;;5090621;28;20454;-49
2021/01/21 12:40:12;;;;;;;4.77;2.57;;;13.30;86.80;;;;;;5090633;28;20886;-47
2021/01/21 12:42:38;;;;;;;4.13;2.30;;;13.00;86.60;;;;;;5090492;28;20425;-47
2021/01/21 12:45:06;;;;;;;7.40;2.33;;;13.10;86.30;;;;;;5092918;28;20407;-47
2021/01/21 12:47:33;;;;;;;5.77;2.33;;;13.40;87.60;;;;;;5095127;28;20509;-47
2021/01/21 12:49:59;;;;;;;5.23;2.00;;;13.20;87.10;;;;;;5094812;28;20429;-47
2021/01/21 12:52:26;;;;;;;6.17;1.90;;;13.50;88.00;;;;;;5094331;28;20455;-47
2021/01/21 12:54:57;;;;;;;3.80;2.37;;;13.20;87.70;;;;;;5094955;28;20806;-48
2021/01/21 12:57:24;;;;;;;3.07;2.20;;;13.60;88.10;;;;;;5095176;28;20442;-48
2021/01/21 12:59:52;;;;;;;8.93;2.60;;;13.40;88.20;;;;;;5094829;28;20452;-48
2021/01/21 13:02:18;;;;;;;5.77;2.90;;;13.10;88.30;;;;;;5094210;28;20446;-47
2021/01/21 13:04:45;;;;;;;4.30;2.00;;;13.10;88.20;;;;;;5094705;28;20412;-48
2021/01/21 13:07:12;;;;;;;3.90;2.47;;;13.10;88.40;;;;;;5094604;28;20433;-48
2021/01/21 13:09:39;;;;;;;8.87;3.50;;;13.00;88.30;;;;;;5094675;28;20405;-48
2021/01/21 13:12:07;;;;;;;9.23;3.10;;;13.10;88.80;;;;;;5094342;28;20465;-48
2021/01/21 13:14:33;;;;;;;5.57;3.20;;;13.20;89.30;;;;;;5094181;28;20443;-48
2021/01/21 13:17:00;;;;;;;9.10;3.67;;;13.10;89.10;;;;;;5094162;28;20577;-48